Time;durP1;ratioP1;P1;durP2;ratioP2;P2;SDS_P1;SDS_P2;PMS_P1;PMS_P2;Temp;Humidity;BMP_temperature;BMP_pressure;BME280_temperature;BME280_humidity;BME280_pressure;Samples;Min_cycle;Max_cycle;Signal;HPM_P1;HPM_P2
2024/01/28 00:01:56;;;;;;;;;;;11.50;99.90;;;;;;5090396;28;19918;-66
2024/01/28 00:04:23;;;;;;;;;;;11.50;99.90;;;;;;5089347;28;20002;-66
2024/01/28 00:06:49;;;;;;;;;;;11.50;99.90;;;;;;5072125;28;19920;-65
2024/01/28 00:09:16;;;;;;;;;;;11.50;99.90;;;;;;5089946;28;19924;-65
2024/01/28 00:11:43;;;;;;;;;;;11.60;99.90;;;;;;5090192;28;19960;-65
2024/01/28 00:14:09;;;;;;;;;;;11.60;99.90;;;;;;5090132;28;20015;-65
2024/01/28 00:16:34;;;;;;;;;;;11.60;99.90;;;;;;5090100;28;19951;-65
2024/01/28 00:19:00;;;;;;;;;;;11.60;99.90;;;;;;5090211;28;20287;-65
2024/01/28 00:21:26;;;;;;;;;;;11.70;99.90;;;;;;5090070;28;19923;-64
2024/01/28 00:23:52;;;;;;;;;;;11.70;99.90;;;;;;5090137;28;19908;-63
2024/01/28 00:26:19;;;;;;;;;;;11.60;99.90;;;;;;5090376;28;19912;-65
2024/01/28 00:28:45;;;;;;;;;;;11.60;99.90;;;;;;5090128;28;20222;-65
2024/01/28 00:31:11;;;;;;;;;;;11.70;99.90;;;;;;5090266;28;20315;-65
2024/01/28 00:33:37;;;;;;;;;;;11.70;99.90;;;;;;5090293;28;19961;-65
2024/01/28 00:36:03;;;;;;;;;;;11.70;99.90;;;;;;5090304;28;19908;-66
2024/01/28 00:38:31;;;;;;;;;;;11.70;99.90;;;;;;5090099;28;20003;-65
2024/01/28 00:41:00;;;;;;;;;;;11.70;99.90;;;;;;5089774;28;19908;-65
2024/01/28 00:43:27;;;;;;;;;;;11.80;99.90;;;;;;5089904;28;20014;-65
2024/01/28 00:45:52;;;;;;;;;;;11.80;99.90;;;;;;5088437;28;19955;-65
2024/01/28 00:48:18;;;;;;;;;;;11.80;99.90;;;;;;5089898;28;19920;-65
2024/01/28 00:50:44;;;;;;;;;;;11.90;99.90;;;;;;5089598;28;19934;-65
2024/01/28 00:53:10;;;;;;;;;;;11.90;99.90;;;;;;5088494;28;19920;-66
2024/01/28 00:55:36;;;;;;;;;;;11.80;99.90;;;;;;5091007;28;19943;-65
2024/01/28 00:58:03;;;;;;;;;;;11.90;99.90;;;;;;5093856;28;19915;-65
2024/01/28 01:00:29;;;;;;;;;;;11.90;99.90;;;;;;5093818;28;19912;-64
2024/01/28 01:02:54;;;;;;;;;;;11.90;99.90;;;;;;5093377;28;20222;-67
2024/01/28 01:05:20;;;;;;;;;;;11.90;99.90;;;;;;5093571;28;19995;-65
2024/01/28 01:07:46;;;;;;;;;;;11.90;99.90;;;;;;5093246;28;19923;-65
2024/01/28 01:10:12;;;;;;;;;;;12.00;99.90;;;;;;5093337;28;19923;-63
2024/01/28 01:12:38;;;;;;;;;;;12.00;99.90;;;;;;5093160;28;20019;-64
2024/01/28 01:15:04;;;;;;;;;;;12.00;99.90;;;;;;5093198;28;19934;-64
2024/01/28 01:17:30;;;;;;;;;;;12.00;99.90;;;;;;5093286;28;19948;-65
2024/01/28 01:19:55;;;;;;;;;;;12.00;99.90;;;;;;5093026;28;19979;-65
2024/01/28 01:22:21;;;;;;;;;;;12.00;99.90;;;;;;5093222;28;20354;-65
2024/01/28 01:24:47;;;;;;;;;;;12.00;99.90;;;;;;5093340;28;19908;-65
2024/01/28 01:27:13;;;;;;;;;;;12.00;99.90;;;;;;5092844;28;19908;-65
2024/01/28 01:29:39;;;;;;;;;;;12.10;99.90;;;;;;5091287;28;19912;-65
2024/01/28 01:32:05;;;;;;;;;;;12.10;99.90;;;;;;5093290;28;19998;-65
2024/01/28 01:34:31;;;;;;;;;;;12.00;99.90;;;;;;5091355;28;20018;-66
2024/01/28 01:36:57;;;;;;;;;;;12.00;99.90;;;;;;5092745;28;19908;-65
2024/01/28 01:39:23;;;;;;;;;;;12.00;99.90;;;;;;5092596;28;20317;-67
2024/01/28 01:41:49;;;;;;;;;;;12.00;99.90;;;;;;5092625;28;19952;-65
2024/01/28 01:44:15;;;;;;;;;;;12.00;99.90;;;;;;5091240;28;19908;-66
2024/01/28 01:46:42;;;;;;;;;;;12.00;99.90;;;;;;5092437;28;19935;-65
2024/01/28 01:49:08;;;;;;;;;;;12.00;99.90;;;;;;5092559;28;19950;-65
2024/01/28 01:51:34;;;;;;;;;;;12.00;99.90;;;;;;5091093;28;19934;-66
2024/01/28 01:54:01;;;;;;;;;;;12.00;99.90;;;;;;5092314;28;20368;-65
2024/01/28 01:56:29;;;;;;;;;;;12.00;99.90;;;;;;5092434;28;19958;-65
2024/01/28 01:58:55;;;;;;;;;;;12.00;99.90;;;;;;5092457;28;19909;-65
2024/01/28 02:01:21;;;;;;;;;;;12.00;99.90;;;;;;5090771;28;19919;-66
2024/01/28 02:03:47;;;;;;;;;;;12.00;99.90;;;;;;5091302;28;19924;-64
2024/01/28 02:06:13;;;;;;;;;;;12.00;99.90;;;;;;5089393;28;19908;-65
2024/01/28 02:08:39;;;;;;;;;;;12.00;99.90;;;;;;5091949;28;19920;-65
2024/01/28 02:11:06;;;;;;;;;;;12.00;99.90;;;;;;5092026;28;19949;-65
2024/01/28 02:13:32;;;;;;;;;;;12.00;99.90;;;;;;5092054;28;19939;-64
2024/01/28 02:15:59;;;;;;;;;;;12.00;99.90;;;;;;5092216;28;20329;-66
2024/01/28 02:18:24;;;;;;;;;;;12.00;99.90;;;;;;5092004;28;19908;-65
2024/01/28 02:20:50;;;;;;;;;;;12.00;99.90;;;;;;5091928;28;19908;-66
2024/01/28 02:23:22;;;;;;;;;;;12.00;99.90;;;;;;5092163;28;19919;-65
2024/01/28 02:25:49;;;;;;;;;;;12.00;99.90;;;;;;5091935;28;19908;-65
2024/01/28 02:28:15;;;;;;;;;;;12.00;99.90;;;;;;5091875;28;19918;-65
2024/01/28 02:30:41;;;;;;;;;;;12.00;99.90;;;;;;5091615;28;19954;-65
2024/01/28 02:33:07;;;;;;;;;;;12.00;99.90;;;;;;5091487;28;19916;-66
2024/01/28 02:35:32;;;;;;;;;;;11.90;99.90;;;;;;5090125;28;19908;-65
2024/01/28 02:37:58;;;;;;;;;;;11.80;99.90;;;;;;5091848;28;20059;-64
2024/01/28 02:40:24;;;;;;;;;;;11.80;99.90;;;;;;5091566;28;19908;-65
2024/01/28 02:42:50;;;;;;;;;;;11.70;99.90;;;;;;5091621;28;19908;-65
2024/01/28 02:45:17;;;;;;;;;;;11.60;99.90;;;;;;5091341;28;20304;-65
2024/01/28 02:47:43;;;;;;;;;;;11.60;99.90;;;;;;5090131;28;19914;-65
2024/01/28 02:50:09;;;;;;;;;;;11.60;99.90;;;;;;5091278;28;19924;-65
2024/01/28 02:52:35;;;;;;;;;;;11.60;99.90;;;;;;5091194;28;20003;-64
2024/01/28 02:55:00;;;;;;;;;;;11.60;99.90;;;;;;5091370;28;19991;-64
2024/01/28 02:57:26;;;;;;;;;;;11.60;99.90;;;;;;5091024;28;19912;-65
2024/01/28 02:59:53;;;;;;;;;;;11.60;99.90;;;;;;5091039;28;20026;-65
2024/01/28 03:02:20;;;;;;;;;;;11.50;99.90;;;;;;5089590;28;19949;-65
2024/01/28 03:04:46;;;;;;;;;;;11.50;99.90;;;;;;5089184;28;20299;-65
2024/01/28 03:07:12;;;;;;;;;;;11.50;99.90;;;;;;5090964;28;19964;-65
2024/01/28 03:09:38;;;;;;;;;;;11.50;99.90;;;;;;5090771;28;19997;-65
2024/01/28 03:12:05;;;;;;;;;;;11.50;99.90;;;;;;5090972;28;20293;-65
2024/01/28 03:14:30;;;;;;;;;;;11.60;99.90;;;;;;5091167;28;19925;-65
2024/01/28 03:16:56;;;;;;;;;;;11.50;99.90;;;;;;5090766;28;20245;-64
2024/01/28 03:19:22;;;;;;;;;;;11.50;99.90;;;;;;5090744;28;19953;-65
2024/01/28 03:21:48;;;;;;;;;;;11.50;99.90;;;;;;5070662;28;20273;-65
2024/01/28 03:24:14;;;;;;;;;;;11.50;99.90;;;;;;5070294;28;20130;-65
2024/01/28 03:26:40;;;;;;;;;;;11.40;99.90;;;;;;5070211;28;19915;-66
2024/01/28 03:29:06;;;;;;;;;;;11.30;99.90;;;;;;5069058;28;19999;-65
2024/01/28 03:31:31;;;;;;;;;;;11.20;99.90;;;;;;5070585;28;20345;-65
2024/01/28 03:33:57;;;;;;;;;;;11.20;99.90;;;;;;5070428;28;19964;-65
2024/01/28 03:36:23;;;;;;;;;;;11.20;99.90;;;;;;5070279;28;20245;-65
2024/01/28 03:38:49;;;;;;;;;;;11.20;99.90;;;;;;5070254;28;19909;-65
2024/01/28 03:41:15;;;;;;;;;;;11.20;99.90;;;;;;5070226;28;19909;-63
2024/01/28 03:43:43;;;;;;;;;;;11.20;99.90;;;;;;5070315;28;20006;-65
2024/01/28 03:46:09;;;;;;;;;;;11.10;99.90;;;;;;5070402;28;20007;-65
2024/01/28 03:48:36;;;;;;;;;;;11.10;99.90;;;;;;5070497;28;19909;-65
2024/01/28 03:51:02;;;;;;;;;;;11.00;99.90;;;;;;5083878;28;19915;-65
2024/01/28 03:53:28;;;;;;;;;;;11.00;99.90;;;;;;5090461;28;19917;-65
2024/01/28 03:55:54;;;;;;;;;;;11.00;99.90;;;;;;5090399;28;19984;-66
2024/01/28 03:58:20;;;;;;;;;;;10.90;99.90;;;;;;5090303;28;20356;-65
2024/01/28 04:00:45;;;;;;;;;;;10.90;99.90;;;;;;5090417;28;19908;-65
2024/01/28 04:03:11;;;;;;;;;;;10.90;99.90;;;;;;5090289;28;19908;-67
2024/01/28 04:05:37;;;;;;;;;;;10.80;99.90;;;;;;5090301;28;19919;-65
2024/01/28 04:08:04;;;;;;;;;;;10.80;99.90;;;;;;5090165;28;19973;-64
2024/01/28 04:10:29;;;;;;;;;;;10.70;99.90;;;;;;5090044;28;19908;-65
2024/01/28 04:12:56;;;;;;;;;;;10.70;99.90;;;;;;5090073;28;19916;-65
2024/01/28 04:15:22;;;;;;;;;;;10.80;99.90;;;;;;5090140;28;19980;-64
2024/01/28 04:17:47;;;;;;;;;;;10.80;99.90;;;;;;5088709;28;19942;-65
2024/01/28 04:20:13;;;;;;;;;;;10.80;99.90;;;;;;5090071;28;19908;-65
2024/01/28 04:22:40;;;;;;;;;;;10.90;99.90;;;;;;5090223;28;20008;-65
2024/01/28 04:25:06;;;;;;;;;;;10.90;99.90;;;;;;5088667;28;19908;-65
2024/01/28 04:27:32;;;;;;;;;;;10.90;99.90;;;;;;5090389;28;19956;-65
2024/01/28 04:29:58;;;;;;;;;;;11.00;99.90;;;;;;5089832;28;20353;-64
2024/01/28 04:32:25;;;;;;;;;;;11.00;99.90;;;;;;5094118;28;19980;-64
2024/01/28 04:34:51;;;;;;;;;;;11.00;99.90;;;;;;5092538;28;19963;-65
2024/01/28 04:37:17;;;;;;;;;;;11.00;99.90;;;;;;5093951;28;19915;-64
2024/01/28 04:39:44;;;;;;;;;;;11.10;99.90;;;;;;5094046;28;19991;-64
2024/01/28 04:42:11;;;;;;;;;;;11.20;99.90;;;;;;5093522;28;19964;-65
2024/01/28 04:44:37;;;;;;;;;;;11.20;99.90;;;;;;5093654;28;20039;-65
2024/01/28 04:47:04;;;;;;;;;;;11.20;99.90;;;;;;5093987;28;20348;-65
2024/01/28 04:49:32;;;;;;;;;;;11.30;99.90;;;;;;5093791;28;19909;-66
2024/01/28 04:51:58;;;;;;;;;;;11.20;99.90;;;;;;5094268;28;19995;-64
2024/01/28 04:54:24;;;;;;;;;;;11.20;99.90;;;;;;5094604;28;20372;-65
2024/01/28 04:56:49;;;;;;;;;;;11.20;99.90;;;;;;5094265;28;19998;-64
2024/01/28 04:59:15;;;;;;;;;;;11.20;99.90;;;;;;5093392;28;20002;-65
2024/01/28 05:01:41;;;;;;;;;;;11.20;99.90;;;;;;5094385;28;19908;-65
2024/01/28 05:04:07;;;;;;;;;;;11.20;99.90;;;;;;5093036;28;19973;-65
2024/01/28 05:06:37;;;;;;;;;;;11.20;99.90;;;;;;5094877;28;19955;-65
2024/01/28 05:09:03;;;;;;;;;;;11.20;99.90;;;;;;5093862;28;20365;-65
2024/01/28 05:11:30;;;;;;;;;;;11.00;99.90;;;;;;5093845;28;19982;-66
2024/01/28 05:13:57;;;;;;;;;;;10.90;99.90;;;;;;5092761;28;19962;-65
2024/01/28 05:16:23;;;;;;;;;;;10.90;99.90;;;;;;5092861;28;19912;-66
2024/01/28 05:18:51;;;;;;;;;;;10.90;99.90;;;;;;5094480;28;19967;-66
2024/01/28 05:21:18;;;;;;;;;;;10.90;99.90;;;;;;5094138;28;19943;-66
2024/01/28 05:23:47;;;;;;;;;;;10.90;99.90;;;;;;5092878;28;20002;-67
2024/01/28 05:26:14;;;;;;;;;;;11.00;99.90;;;;;;5094022;28;20267;-66
2024/01/28 05:28:40;;;;;;;;;;;11.00;99.90;;;;;;5093794;28;19915;-66
2024/01/28 05:31:07;;;;;;;;;;;11.00;99.90;;;;;;5093720;28;19908;-66
2024/01/28 05:33:37;;;;;;;;;;;11.00;99.90;;;;;;5094221;28;19916;-66
2024/01/28 05:36:13;;;;;;;;;;;11.10;99.90;;;;;;5093966;28;19936;-66
2024/01/28 05:38:39;;;;;;;;;;;11.10;99.90;;;;;;5093887;28;19940;-65
2024/01/28 05:41:08;;;;;;;;;;;11.10;99.90;;;;;;5093621;28;20360;-66
2024/01/28 05:43:34;;;;;;;;;;;11.10;99.90;;;;;;5093782;28;20308;-66
2024/01/28 05:46:00;;;;;;;;;;;11.10;99.90;;;;;;5093667;28;19954;-66
2024/01/28 05:48:26;;;;;;;;;;;11.10;99.90;;;;;;5092075;28;19965;-67
2024/01/28 05:50:52;;;;;;;;;;;11.10;99.90;;;;;;5093633;28;19908;-66
2024/01/28 05:53:18;;;;;;;;;;;11.10;99.90;;;;;;5092794;28;19969;-66
2024/01/28 05:55:45;;;;;;;;;;;11.20;99.90;;;;;;5093200;28;20014;-66
2024/01/28 05:58:12;;;;;;;;;;;11.20;99.90;;;;;;5093152;28;19908;-66
2024/01/28 06:00:37;;;;;;;;;;;11.10;99.90;;;;;;5093173;28;19995;-66
2024/01/28 06:03:06;;;;;;;;;;;11.00;99.90;;;;;;5093499;28;19977;-66
2024/01/28 06:05:32;;;;;;;;;;;11.00;99.90;;;;;;5093296;28;20268;-66
2024/01/28 06:07:58;;;;;;;;;;;10.90;99.90;;;;;;5091311;28;20304;-65
2024/01/28 06:10:24;;;;;;;;;;;11.00;99.90;;;;;;5092071;28;19927;-66
2024/01/28 06:12:50;;;;;;;;;;;11.00;99.90;;;;;;5092579;28;19947;-65
2024/01/28 06:15:16;;;;;;;;;;;11.00;99.90;;;;;;5093206;28;19955;-63
2024/01/28 06:17:42;;;;;;;;;;;10.90;99.90;;;;;;5092925;28;19986;-66
2024/01/28 06:20:08;;;;;;;;;;;11.00;99.90;;;;;;5092455;28;19972;-65
2024/01/28 06:22:34;;;;;;;;;;;11.00;99.90;;;;;;5093127;28;19959;-65
2024/01/28 06:25:00;;;;;;;;;;;11.10;99.90;;;;;;5092811;28;19908;-66
2024/01/28 06:27:26;;;;;;;;;;;11.20;99.90;;;;;;5090836;28;19950;-66
2024/01/28 06:29:52;;;;;;;;;;;11.40;99.90;;;;;;5091010;28;19957;-68
2024/01/28 06:32:18;;;;;;;;;;;11.40;99.90;;;;;;5092366;28;19908;-65
2024/01/28 06:34:44;;;;;;;;;;;11.60;99.90;;;;;;5092708;28;19916;-65
2024/01/28 06:37:10;;;;;;;;;;;11.80;99.90;;;;;;5092758;28;19958;-64
2024/01/28 06:39:41;;;;;;;;;;;12.30;99.90;;;;;;5092326;28;19943;-63
2024/01/28 06:42:08;;;;;;;;;;;12.70;99.90;;;;;;5092046;28;20375;-65
2024/01/28 06:44:34;;;;;;;;;;;13.30;99.90;;;;;;5092846;28;20372;-65
2024/01/28 06:47:00;;;;;;;;;;;13.70;99.90;;;;;;5091185;28;19915;-74
2024/01/28 06:49:26;;;;;;;;;;;14.10;99.90;;;;;;5092453;28;19908;-64
2024/01/28 06:51:52;;;;;;;;;;;14.50;99.90;;;;;;5092153;28;19916;-67
2024/01/28 06:54:19;;;;;;;;;;;14.90;99.90;;;;;;5092200;28;19916;-66
2024/01/28 06:56:45;;;;;;;;;;;15.20;99.90;;;;;;5090673;28;19914;-68
2024/01/28 06:59:11;;;;;;;;;;;15.70;99.90;;;;;;5092347;28;19912;-66
2024/01/28 07:01:39;;;;;;;;;;;16.00;99.90;;;;;;5092164;28;19958;-65
2024/01/28 07:04:05;;;;;;;;;;;16.40;99.90;;;;;;5092525;28;19908;-66
2024/01/28 07:06:31;;;;;;;;;;;16.90;99.90;;;;;;5092320;28;19908;-65
2024/01/28 07:08:58;;;;;;;;;;;17.50;99.90;;;;;;5090483;28;19931;-66
2024/01/28 07:11:24;;;;;;;;;;;18.10;99.90;;;;;;5092341;28;19920;-67
2024/01/28 07:13:50;;;;;;;;;;;19.00;99.90;;;;;;5092018;28;19936;-67
2024/01/28 07:16:16;;;;;;;;;;;19.30;99.90;;;;;;5092554;28;19916;-67
2024/01/28 07:18:42;;;;;;;;;;;20.10;99.90;;;;;;5092567;28;20280;-65
2024/01/28 07:21:07;;;;;;;;;;;20.70;99.90;;;;;;5091129;28;20068;-66
2024/01/28 07:23:33;;;;;;;;;;;21.10;99.90;;;;;;5092857;28;20003;-66
2024/01/28 07:25:59;;;;;;;;;;;21.40;99.90;;;;;;5092556;28;19947;-66
2024/01/28 07:28:25;;;;;;;;;;;21.40;99.90;;;;;;5092361;28;20328;-66
2024/01/28 07:30:51;;;;;;;;;;;21.90;99.90;;;;;;5090975;28;19927;-65
2024/01/28 07:33:17;;;;;;;;;;;21.90;99.90;;;;;;5092342;28;19920;-67
2024/01/28 07:35:43;;;;;;;;;;;22.20;99.90;;;;;;5092093;28;19912;-67
2024/01/28 07:38:10;;;;;;;;;;;22.50;99.90;;;;;;5092388;28;19953;-67
2024/01/28 07:40:36;;;;;;;;;;;23.00;99.90;;;;;;5090823;28;19937;-65
2024/01/28 07:43:03;;;;;;;;;;;23.60;99.90;;;;;;5091384;28;19912;-66
2024/01/28 07:45:29;;;;;;;;;;;24.10;99.90;;;;;;5091892;28;19909;-66
2024/01/28 07:47:55;;;;;;;;;;;24.20;99.90;;;;;;5092070;28;19961;-68
2024/01/28 07:50:21;;;;;;;;;;;24.50;99.90;;;;;;5092022;28;19948;-66
2024/01/28 07:52:47;;;;;;;;;;;25.00;99.90;;;;;;5092033;28;20416;-66
2024/01/28 07:55:13;;;;;;;;;;;25.10;99.90;;;;;;5090380;28;19908;-65
2024/01/28 07:57:38;;;;;;;;;;;25.00;99.90;;;;;;5091442;28;19908;-66
2024/01/28 08:00:10;;;;;;;;;;;24.60;99.90;;;;;;5091677;28;20002;-65
2024/01/28 08:02:35;;;;;;;;;;;23.90;99.90;;;;;;5091713;28;19908;-61
2024/01/28 08:05:01;;;;;;;;;;;23.20;99.90;;;;;;5093455;28;19976;-65
2024/01/28 08:07:27;;;;;;;;;;;22.60;99.90;;;;;;5096038;28;19912;-65
2024/01/28 08:09:54;;;;;;;;;;;22.00;99.90;;;;;;5095926;28;20439;-65
2024/01/28 08:12:20;;;;;;;;;;;21.50;99.90;;;;;;5095856;28;19915;-65
2024/01/28 08:14:46;;;;;;;;;;;20.70;99.90;;;;;;5095347;28;19916;-65
2024/01/28 08:17:13;;;;;;;;;;;20.20;99.90;;;;;;5094962;28;19908;-65
2024/01/28 08:19:38;;;;;;;;;;;19.60;99.90;;;;;;5094897;28;19908;-64
2024/01/28 08:22:04;;;;;;;;;;;18.90;99.90;;;;;;5094907;28;19961;-64
2024/01/28 08:24:30;;;;;;;;;;;18.50;99.90;;;;;;5093413;28;20287;-65
2024/01/28 08:26:56;;;;;;;;;;;18.20;99.90;;;;;;5094371;28;19915;-64
2024/01/28 08:29:23;;;;;;;;;;;17.90;99.90;;;;;;5094476;28;19916;-65
2024/01/28 08:31:50;;;;;;;;;;;17.70;99.90;;;;;;5094763;28;20340;-66
2024/01/28 08:34:16;;;;;;;;;;;17.70;99.90;;;;;;5093785;28;20010;-65
2024/01/28 08:36:42;;;;;;;;;;;17.70;99.90;;;;;;5086218;28;20012;-64
2024/01/28 08:39:09;;;;;;;;;;;17.50;99.90;;;;;;5084897;28;19912;-65
2024/01/28 08:41:36;;;;;;;;;;;17.50;99.90;;;;;;5084518;28;19916;-65
2024/01/28 08:44:06;;;;;;;;;;;17.00;99.90;;;;;;5082283;28;19915;-66
2024/01/28 08:46:32;;;;;;;;;;;16.90;99.90;;;;;;5083995;28;19998;-64
2024/01/28 08:48:58;;;;;;;;;;;16.90;99.90;;;;;;5084048;28;19982;-64
2024/01/28 08:51:24;;;;;;;;;;;16.80;99.90;;;;;;5084807;28;19912;-65
2024/01/28 08:53:50;;;;;;;;;;;16.80;99.90;;;;;;5085330;28;19923;-61
2024/01/28 08:56:16;;;;;;;;;;;16.80;99.90;;;;;;5074231;28;19908;-65
2024/01/28 08:58:43;;;;;;;;;;;16.90;99.90;;;;;;5072674;28;19977;-65
2024/01/28 09:01:09;;;;;;;;;;;16.90;99.90;;;;;;5074380;28;19922;-65
2024/01/28 09:03:35;;;;;;;;;;;16.70;99.90;;;;;;5072580;28;19948;-65
2024/01/28 09:06:02;;;;;;;;;;;16.70;99.90;;;;;;5074282;28;19916;-64
2024/01/28 09:08:30;;;;;;;;;;;16.70;99.90;;;;;;5073978;28;20050;-65
2024/01/28 09:10:56;;;;;;;;;;;16.70;99.90;;;;;;5074066;28;19915;-66
2024/01/28 09:13:24;;;;;;;;;;;16.80;99.90;;;;;;5072575;28;20280;-65
2024/01/28 09:15:51;;;;;;;;;;;17.10;99.90;;;;;;5073606;28;19908;-65
2024/01/28 09:18:16;;;;;;;;;;;17.30;99.90;;;;;;5073294;28;20306;-66
2024/01/28 09:20:42;;;;;;;;;;;17.50;99.90;;;;;;5085578;28;19957;-65
2024/01/28 09:23:08;;;;;;;;;;;17.40;99.90;;;;;;5093346;28;19908;-65
2024/01/28 09:25:35;;;;;;;;;;;17.20;99.90;;;;;;5093414;28;20340;-66
2024/01/28 09:28:03;;;;;;;;;;;17.20;99.90;;;;;;5094365;28;19908;-65
2024/01/28 09:30:30;;;;;;;;;;;17.20;99.90;;;;;;5094621;28;19908;-66
2024/01/28 09:32:56;;;;;;;;;;;17.00;99.90;;;;;;5093971;28;19915;-65
2024/01/28 09:35:22;;;;;;;;;;;17.00;99.90;;;;;;5093324;28;19912;-65
2024/01/28 09:37:48;;;;;;;;;;;16.80;99.90;;;;;;5092036;28;19920;-65
2024/01/28 09:40:14;;;;;;;;;;;16.90;99.90;;;;;;5094126;28;19908;-66
2024/01/28 09:42:47;;;;;;;;;;;17.10;99.90;;;;;;5093256;28;20296;-64
2024/01/28 09:45:13;;;;;;;;;;;17.10;99.90;;;;;;5093592;28;19951;-65
2024/01/28 09:47:40;;;;;;;;;;;16.60;99.90;;;;;;5093163;28;20240;-65
2024/01/28 09:50:06;;;;;;;;;;;16.70;99.90;;;;;;5092462;28;19920;-66
2024/01/28 09:52:32;;;;;;;;;;;16.80;99.90;;;;;;5093073;28;20070;-65
2024/01/28 09:54:58;;;;;;;;;;;16.90;99.90;;;;;;5093086;28;20011;-65
2024/01/28 09:57:24;;;;;;;;;;;17.00;99.90;;;;;;5091619;28;20054;-65
2024/01/28 09:59:50;;;;;;;;;;;17.20;99.90;;;;;;5093017;28;20344;-65
2024/01/28 10:02:17;;;;;;;;;;;17.30;99.90;;;;;;5093068;28;19995;-66
2024/01/28 10:04:45;;;;;;;;;;;17.20;99.90;;;;;;5092010;28;20000;-65
2024/01/28 10:07:11;;;;;;;;;;;17.20;99.90;;;;;;5092962;28;19934;-66
2024/01/28 10:09:37;;;;;;;;;;;17.00;99.90;;;;;;5092808;28;20339;-65
2024/01/28 10:12:03;;;;;;;;;;;17.00;99.90;;;;;;5092862;28;20018;-66
2024/01/28 10:14:29;;;;;;;;;;;17.20;99.90;;;;;;5093062;28;19916;-63
2024/01/28 10:16:57;;;;;;;;;;;17.30;99.90;;;;;;5092875;28;19908;-65
2024/01/28 10:19:23;;;;;;;;;;;17.40;99.90;;;;;;5093341;28;20409;-64
2024/01/28 10:21:49;;;;;;;;;;;17.30;99.90;;;;;;5072529;28;19913;-65
2024/01/28 10:24:15;;;;;;;;;;;17.50;99.90;;;;;;5072548;28;19912;-67
2024/01/28 10:26:41;;;;;;;;;;;17.60;99.90;;;;;;5071955;28;20386;-65
2024/01/28 10:29:10;;;;;;;;;;;17.70;99.90;;;;;;5071848;28;20055;-65
2024/01/28 10:31:39;;;;;;;;;;;18.00;99.90;;;;;;5072669;28;19908;-65
2024/01/28 10:34:05;;;;;;;;;;;18.10;99.90;;;;;;5072228;28;19938;-64
2024/01/28 10:36:34;;;;;;;;;;;17.80;99.90;;;;;;5072517;28;20374;-64
2024/01/28 10:39:01;;;;;;;;;;;17.90;99.90;;;;;;5072259;28;20422;-64
2024/01/28 10:41:27;;;;;;;;;;;17.80;99.90;;;;;;5072007;28;20283;-64
2024/01/28 10:43:57;;;;;;;;;;;17.80;99.90;;;;;;5072029;28;20000;-64
2024/01/28 10:46:29;;;;;;;;;;;17.80;99.90;;;;;;5071872;28;19909;-65
2024/01/28 10:49:01;;;;;;;;;;;17.70;99.90;;;;;;5070477;28;19908;-64
2024/01/28 10:51:27;;;;;;;;;;;17.80;99.90;;;;;;5087707;28;19908;-65
2024/01/28 10:53:54;;;;;;;;;;;17.90;99.90;;;;;;5073529;28;19944;-64
2024/01/28 10:56:20;;;;;;;;;;;18.00;99.90;;;;;;5092111;28;20007;-63
2024/01/28 10:58:46;;;;;;;;;;;17.90;99.90;;;;;;5091863;28;19961;-64
2024/01/28 11:01:12;;;;;;;;;;;17.90;99.90;;;;;;5092040;28;19912;-64
2024/01/28 11:03:38;;;;;;;;;;;17.90;99.90;;;;;;5091918;28;19947;-64
2024/01/28 11:06:04;;;;;;;;;;;17.70;99.90;;;;;;5091827;28;19954;-65
2024/01/28 11:08:30;;;;;;;;;;;17.70;99.90;;;;;;5091566;28;19916;-64
2024/01/28 11:10:56;;;;;;;;;;;17.80;99.90;;;;;;5092117;28;19962;-65
2024/01/28 11:13:25;;;;;;;;;;;17.90;99.90;;;;;;5091056;28;21408;-62
2024/01/28 11:15:53;;;;;;;;;;;18.20;99.90;;;;;;5091750;28;19927;-66
2024/01/28 11:18:19;;;;;;;;;;;18.10;99.90;;;;;;5091680;28;20268;-63
2024/01/28 11:20:45;;;;;;;;;;;18.30;99.90;;;;;;5091608;28;19976;-69
2024/01/28 11:23:17;;;;;;;;;;;18.40;99.90;;;;;;5091695;28;19908;-66
2024/01/28 11:25:44;;;;;;;;;;;18.40;99.90;;;;;;5091664;28;20245;-66
2024/01/28 11:28:14;;;;;;;;;;;18.40;99.90;;;;;;5091445;28;19915;-65
2024/01/28 11:30:40;;;;;;;;;;;18.60;99.90;;;;;;5091567;28;19912;-66
2024/01/28 11:33:15;;;;;;;;;;;18.40;99.90;;;;;;5089864;28;20221;-65
2024/01/28 11:35:43;;;;;;;;;;;18.30;99.90;;;;;;5091466;28;19909;-65
2024/01/28 11:38:14;;;;;;;;;;;18.00;99.90;;;;;;5091266;28;19915;-65
2024/01/28 11:40:40;;;;;;;;;;;17.90;99.90;;;;;;5091321;28;19908;-65
2024/01/28 11:43:07;;;;;;;;;;;17.80;99.90;;;;;;5091231;28;19909;-66
2024/01/28 11:45:33;;;;;;;;;;;18.00;99.90;;;;;;5091187;28;19998;-64
2024/01/28 11:48:04;;;;;;;;;;;18.20;99.90;;;;;;5091100;28;20267;-66
2024/01/28 11:50:30;;;;;;;;;;;18.40;99.90;;;;;;5091184;28;19930;-66
2024/01/28 11:52:56;;;;;;;;;;;18.40;99.90;;;;;;5091024;28;19999;-62
2024/01/28 11:55:22;;;;;;;;;;;18.60;99.90;;;;;;5091241;28;19914;-66
2024/01/28 11:57:48;;;;;;;;;;;19.00;99.90;;;;;;5090765;28;20370;-67
2024/01/28 12:00:15;;;;;;;;;;;19.40;99.90;;;;;;5090827;28;20321;-65
2024/01/28 12:02:41;;;;;;;;;;;19.80;99.90;;;;;;5091065;28;19999;-66
2024/01/28 12:05:08;;;;;;;;;;;20.10;99.90;;;;;;5091218;28;19916;-66
2024/01/28 12:07:37;;;;;;;;;;;20.20;99.90;;;;;;5090811;28;19920;-66
2024/01/28 12:10:06;;;;;;;;;;;20.20;99.90;;;;;;5090140;28;20364;-67
2024/01/28 12:12:34;;;;;;;;;;;20.30;99.90;;;;;;5090767;28;19963;-63
2024/01/28 12:15:04;;;;;;;;;;;20.20;99.90;;;;;;5089719;28;19943;-66
2024/01/28 12:17:36;;;;;;;;;;;20.20;99.90;;;;;;5090897;28;19915;-66
2024/01/28 12:20:03;;;;;;;;;;;20.30;99.90;;;;;;5090867;28;19983;-66
2024/01/28 12:22:40;;;;;;;;;;;20.20;99.90;;;;;;5091032;28;19947;-66
2024/01/28 12:25:06;;;;;;;;;;;20.20;99.90;;;;;;5091268;28;20003;-66
2024/01/28 12:27:33;;;;;;;;;;;20.00;99.90;;;;;;5090068;28;20539;-65
2024/01/28 12:29:59;;;;;;;;;;;20.00;99.90;;;;;;5090736;28;19919;-66
2024/01/28 12:32:25;;;;;;;;;;;19.50;99.90;;;;;;5089341;28;19908;-66
2024/01/28 12:34:50;;;;;;;;;;;19.30;99.90;;;;;;5089319;28;20008;-65
2024/01/28 12:37:19;;;;;;;;;;;19.30;99.90;;;;;;5090635;28;19990;-66
2024/01/28 12:39:45;;;;;;;;;;;19.30;99.90;;;;;;5090899;28;19970;-66
2024/01/28 12:42:16;;;;;;;;;;;19.20;99.90;;;;;;5090492;28;19999;-66
2024/01/28 12:44:41;;;;;;;;;;;19.20;99.90;;;;;;5089233;28;19927;-65
2024/01/28 12:47:07;;;;;;;;;;;19.30;99.90;;;;;;5089485;28;20093;-67
2024/01/28 12:49:33;;;;;;;;;;;19.40;99.90;;;;;;5090442;28;20343;-65
2024/01/28 12:51:59;;;;;;;;;;;19.50;99.90;;;;;;5093432;28;19908;-65
2024/01/28 12:54:25;;;;;;;;;;;19.40;99.90;;;;;;5094482;28;20414;-64
2024/01/28 12:56:52;;;;;;;;;;;19.40;99.90;;;;;;5094426;28;19908;-66
2024/01/28 12:59:19;;;;;;;;;;;19.60;99.90;;;;;;5094101;28;20429;-65
2024/01/28 13:01:45;;;;;;;;;;;19.70;99.90;;;;;;5094262;28;19908;-66
2024/01/28 13:04:12;;;;;;;;;;;19.80;99.90;;;;;;5094328;28;19963;-68
2024/01/28 13:06:40;;;;;;;;;;;19.70;99.90;;;;;;5094205;28;19912;-66
2024/01/28 13:09:09;;;;;;;;;;;19.70;99.90;;;;;;5094009;28;19920;-65
2024/01/28 13:11:35;;;;;;;;;;;19.70;99.90;;;;;;5092659;28;19912;-67
2024/01/28 13:14:01;;;;;;;;;;;19.50;99.90;;;;;;5094032;28;19951;-66
2024/01/28 13:16:27;;;;;;;;;;;19.40;99.90;;;;;;5094036;28;19912;-67
2024/01/28 13:18:53;;;;;;;;;;;19.60;99.90;;;;;;5094013;28;20316;-67
2024/01/28 13:21:19;;;;;;;;;;;19.60;99.90;;;;;;5093902;28;19908;-67
2024/01/28 13:23:45;;;;;;;;;;;19.60;99.90;;;;;;5093921;28;19926;-67
2024/01/28 13:26:11;;;;;;;;;;;19.30;99.90;;;;;;5093847;28;19912;-67
2024/01/28 13:28:38;;;;;;;;;;;19.10;99.90;;;;;;5093883;28;19942;-66
2024/01/28 13:31:04;;;;;;;;;;;19.00;99.90;;;;;;5092310;28;19952;-67
2024/01/28 13:33:30;;;;;;;;;;;19.00;99.90;;;;;;5093746;28;20248;-67
2024/01/28 13:35:56;;;;;;;;;;;19.00;99.90;;;;;;5093817;28;20002;-65
2024/01/28 13:38:22;;;;;;;;;;;18.90;99.90;;;;;;5093650;28;20011;-67
2024/01/28 13:40:48;;;;;;;;;;;19.10;99.90;;;;;;5092167;28;20021;-66
2024/01/28 13:43:14;;;;;;;;;;;19.20;99.90;;;;;;5091798;28;20384;-67
2024/01/28 13:45:40;;;;;;;;;;;19.10;99.90;;;;;;5093302;28;19916;-66
2024/01/28 13:48:06;;;;;;;;;;;19.00;99.90;;;;;;5093405;28;19978;-66
2024/01/28 13:50:32;;;;;;;;;;;19.00;99.90;;;;;;5093283;28;19961;-65
2024/01/28 13:52:58;;;;;;;;;;;19.10;99.90;;;;;;5093172;28;19916;-67
2024/01/28 13:55:24;;;;;;;;;;;19.30;99.90;;;;;;5093170;28;19962;-67
2024/01/28 13:57:50;;;;;;;;;;;19.50;99.90;;;;;;5092976;28;19953;-66
2024/01/28 14:00:16;;;;;;;;;;;19.60;99.90;;;;;;5092156;28;19912;-66
2024/01/28 14:02:43;;;;;;;;;;;19.60;99.90;;;;;;5091549;28;19912;-66
2024/01/28 14:05:11;;;;;;;;;;;19.60;99.90;;;;;;5093085;28;19912;-66
2024/01/28 14:07:37;;;;;;;;;;;19.30;99.90;;;;;;5091349;28;19908;-65
2024/01/28 14:10:03;;;;;;;;;;;19.30;99.90;;;;;;5092714;28;19927;-67
2024/01/28 14:12:29;;;;;;;;;;;19.40;99.90;;;;;;5092702;28;19914;-66